createdAt,value
2023-03-13T00:01:58.893Z,99581.28
2023-03-13T00:04:25.923Z,99585.50
2023-03-13T00:06:53.019Z,99590.63
2023-03-13T00:09:20.036Z,99587.22
2023-03-13T00:11:47.465Z,99587.22
2023-03-13T00:14:14.619Z,99581.22
2023-03-13T00:16:41.922Z,99580.38
2023-03-13T00:19:10.146Z,99578.63
2023-03-13T00:21:38.193Z,99582.00
2023-03-13T00:24:05.564Z,99585.38
2023-03-13T00:26:32.625Z,99578.56
2023-03-13T00:28:59.805Z,99571.72
2023-03-13T00:31:30.333Z,99571.72
2023-03-13T00:34:02.646Z,99578.50
2023-03-13T00:36:33.108Z,99578.50
2023-03-13T00:39:03.178Z,99568.25
2023-03-13T00:41:32.200Z,99563.16
2023-03-13T00:43:59.663Z,99550.34
2023-03-13T00:46:29.288Z,99544.34
2023-03-13T00:48:57.123Z,99547.78
2023-03-13T00:51:27.252Z,99554.63
2023-03-13T00:53:56.297Z,99552.91
2023-03-13T00:56:23.925Z,99552.03
2023-03-13T00:58:51.493Z,99551.22
2023-03-13T01:01:33.996Z,99551.25
2023-03-13T01:04:12.252Z,99542.69
2023-03-13T01:06:43.158Z,99542.66
2023-03-13T01:09:13.664Z,99540.16
2023-03-13T01:11:43.415Z,99529.03
2023-03-13T01:14:14.007Z,99532.47
2023-03-13T01:16:41.866Z,99533.31
2023-03-13T01:19:15.317Z,99532.47
2023-03-13T01:21:44.808Z,99533.31
2023-03-13T01:24:12.139Z,99529.84
2023-03-13T01:26:39.349Z,99534.13
2023-03-13T01:29:06.437Z,99535.00
2023-03-13T01:31:36.019Z,99535.81
2023-03-13T01:34:06.824Z,99539.22
2023-03-13T01:36:36.248Z,99534.09
2023-03-13T01:39:04.218Z,99528.94
2023-03-13T01:41:31.778Z,99523.88
2023-03-13T01:43:59.354Z,99520.44
2023-03-13T01:46:38.681Z,99510.22
2023-03-13T01:49:38.340Z,99511.97
2023-03-13T01:52:32.140Z,99511.16
2023-03-13T01:55:16.309Z,99511.97
2023-03-13T01:57:52.190Z,99498.31
2023-03-13T02:00:25.237Z,99495.84
2023-03-13T02:02:57.620Z,99483.09
2023-03-13T02:05:28.343Z,99495.88
2023-03-13T02:08:30.096Z,99500.06
2023-03-13T02:11:40.838Z,99503.47
2023-03-13T02:14:08.063Z,99502.59
2023-03-13T02:16:36.492Z,99491.63
2023-03-13T02:19:17.775Z,99495.06
2023-03-13T02:22:05.272Z,99483.97
2023-03-13T02:25:07.616Z,99496.78
2023-03-13T02:27:34.816Z,99498.47
2023-03-13T02:30:05.643Z,99498.47
2023-03-13T02:32:33.369Z,99493.44
2023-03-13T02:35:09.557Z,99498.56
2023-03-13T02:37:38.368Z,99499.38
2023-03-13T02:40:13.163Z,99487.47
2023-03-13T02:42:42.645Z,99490.91
2023-03-13T02:45:13.807Z,99488.38
2023-03-13T02:47:41.358Z,99489.25
2023-03-13T02:50:10.219Z,99487.56
2023-03-13T02:52:43.482Z,99479.91
2023-03-13T02:55:18.885Z,99483.34
2023-03-13T02:57:45.900Z,99482.53
2023-03-13T03:00:13.310Z,99468.06
2023-03-13T03:02:41.121Z,99457.88
2023-03-13T03:05:08.587Z,99461.31
2023-03-13T03:07:35.751Z,99450.25
2023-03-13T03:10:03.101Z,99471.56
2023-03-13T03:12:30.176Z,99468.19
2023-03-13T03:14:57.158Z,99479.25
2023-03-13T03:17:25.156Z,99480.13
2023-03-13T03:19:53.589Z,99474.19
2023-03-13T03:22:20.761Z,99466.56
2023-03-13T03:24:47.769Z,99461.50
2023-03-13T03:27:15.145Z,99458.06
2023-03-13T03:29:47.584Z,99464.94
2023-03-13T03:32:15.289Z,99464.94
2023-03-13T03:34:42.366Z,99456.44
2023-03-13T03:37:09.624Z,99446.25
2023-03-13T03:39:36.937Z,99443.72
2023-03-13T03:42:05.970Z,99435.16
2023-03-13T03:44:33.210Z,99449.72
2023-03-13T03:47:00.957Z,99453.16
2023-03-13T03:49:32.650Z,99437.84
2023-03-13T03:51:59.601Z,99430.19
2023-03-13T03:54:32.190Z,99428.50
2023-03-13T03:57:00.232Z,99429.38
2023-03-13T03:59:27.319Z,99432.84
2023-03-13T04:01:57.338Z,99425.19
2023-03-13T04:04:26.855Z,99422.66
2023-03-13T04:07:02.302Z,99414.16
2023-03-13T04:09:32.190Z,99404.75
2023-03-13T04:12:01.218Z,99412.47
2023-03-13T04:14:30.299Z,99409.09
2023-03-13T04:16:58.354Z,99404.00
2023-03-13T04:19:25.420Z,99407.41
2023-03-13T04:21:52.476Z,99401.47
2023-03-13T04:24:20.011Z,99410.84
2023-03-13T04:26:47.841Z,99409.16
2023-03-13T04:29:15.723Z,99414.28
2023-03-13T04:32:12.153Z,99403.25
2023-03-13T04:35:02.311Z,99400.69
2023-03-13T04:37:40.505Z,99393.88
2023-03-13T04:40:23.255Z,99380.28
2023-03-13T04:43:06.446Z,99393.94
2023-03-13T04:45:59.924Z,99383.72
2023-03-13T04:48:39.564Z,99386.31
2023-03-13T04:51:33.803Z,99380.31
2023-03-13T04:54:17.685Z,99384.66
2023-03-13T04:56:53.913Z,99376.09
2023-03-13T04:59:39.783Z,99367.56
2023-03-13T05:02:25.182Z,99383.81
2023-03-13T05:05:01.638Z,99384.69
2023-03-13T05:07:28.722Z,99383.84
2023-03-13T05:10:01.758Z,99390.69
2023-03-13T05:12:49.157Z,99362.53
2023-03-13T05:15:29.503Z,99361.72
2023-03-13T05:18:15.722Z,99346.38
2023-03-13T05:21:01.704Z,99357.47
2023-03-13T05:23:38.187Z,99361.72
2023-03-13T05:26:43.464Z,99349.78
2023-03-13T05:29:30.742Z,99355.78
2023-03-13T05:32:07.097Z,99348.13
2023-03-13T05:34:43.231Z,99346.44
2023-03-13T05:37:33.399Z,99343.00
2023-03-13T05:40:19.212Z,99336.19
2023-03-13T05:43:14.980Z,99321.72
2023-03-13T05:45:58.952Z,99320.84
2023-03-13T05:48:40.088Z,99325.13
2023-03-13T05:51:25.537Z,99321.72
2023-03-13T05:53:52.617Z,99317.44
2023-03-13T05:56:32.402Z,99326.00
2023-03-13T05:59:19.826Z,99328.56
2023-03-13T06:01:57.072Z,99331.09
2023-03-13T06:04:30.491Z,99332.84
2023-03-13T06:06:57.606Z,99333.69
2023-03-13T06:09:24.927Z,99329.41
2023-03-13T06:11:53.340Z,99339.66
2023-03-13T06:14:20.458Z,99324.28
2023-03-13T06:17:19.993Z,99341.34
2023-03-13T06:19:47.683Z,99340.50
2023-03-13T06:22:17.222Z,99328.56
2023-03-13T06:24:49.760Z,99328.56
2023-03-13T06:27:17.225Z,99327.69
2023-03-13T06:29:44.273Z,99309.78
2023-03-13T06:32:11.317Z,99314.91
2023-03-13T06:34:38.488Z,99312.34
2023-03-13T06:37:05.729Z,99296.97
2023-03-13T06:39:32.923Z,99301.22
2023-03-13T06:42:00.109Z,99293.56
2023-03-13T06:44:27.436Z,99291.84
2023-03-13T06:46:54.671Z,99284.97
2023-03-13T06:49:21.683Z,99281.56
2023-03-13T06:51:48.688Z,99281.56
2023-03-13T06:54:15.734Z,99272.16
2023-03-13T06:56:42.830Z,99284.06
2023-03-13T06:59:09.966Z,99284.94
2023-03-13T07:01:37.074Z,99279.75
2023-03-13T07:04:04.213Z,99276.31
2023-03-13T07:06:31.259Z,99268.59
2023-03-13T07:08:58.287Z,99260.91
2023-03-13T07:11:26.145Z,99268.56
2023-03-13T07:14:06.532Z,99254.84
2023-03-13T07:16:42.243Z,99261.63
2023-03-13T07:19:09.372Z,99247.06
2023-03-13T07:21:36.515Z,99244.47
2023-03-13T07:24:04.368Z,99239.31
2023-03-13T07:26:31.432Z,99241.84
2023-03-13T07:28:58.629Z,99230.72
2023-03-13T07:31:25.974Z,99236.66
2023-03-13T07:33:56.823Z,99230.66
2023-03-13T07:36:25.502Z,99221.22
2023-03-13T07:38:53.403Z,99229.75
2023-03-13T07:41:20.901Z,99213.47
2023-03-13T07:43:48.420Z,99223.69
2023-03-13T07:46:19.103Z,99219.34
2023-03-13T07:48:47.263Z,99221.03
2023-03-13T07:51:25.203Z,99215.88
2023-03-13T07:53:57.459Z,99205.56
2023-03-13T07:56:25.204Z,99208.09
2023-03-13T07:58:52.299Z,99193.53
2023-03-13T08:01:24.452Z,99203.75
2023-03-13T08:03:54.724Z,99196.88
2023-03-13T08:06:26.468Z,99194.25
2023-03-13T08:08:56.969Z,99189.06
2023-03-13T08:11:26.172Z,99186.47
2023-03-13T08:13:54.686Z,99179.56
2023-03-13T08:16:30.638Z,99176.91
2023-03-13T08:18:59.467Z,99170.88
2023-03-13T08:21:29.121Z,99169.13
2023-03-13T08:23:59.277Z,99170.81
2023-03-13T08:26:28.599Z,99165.63
2023-03-13T08:29:00.318Z,99163.09
2023-03-13T08:31:33.015Z,99165.59
2023-03-13T08:34:00.474Z,99153.59
2023-03-13T08:36:32.606Z,99152.69
2023-03-13T08:39:05.737Z,99158.69
2023-03-13T08:41:36.347Z,99148.41
2023-03-13T08:44:05.275Z,99141.53
2023-03-13T08:46:35.417Z,99146.63
2023-03-13T08:49:04.704Z,99141.44
2023-03-13T08:51:31.731Z,99138.03
2023-03-13T08:53:58.824Z,99141.41
2023-03-13T08:56:28.780Z,99127.66
2023-03-13T08:58:58.613Z,99116.53
2023-03-13T09:01:30.597Z,99116.47
2023-03-13T09:03:58.079Z,99107.03
2023-03-13T09:06:25.238Z,99107.88
2023-03-13T09:08:52.447Z,99113.88
2023-03-13T09:11:21.915Z,99090.66
2023-03-13T09:13:51.102Z,99080.34
2023-03-13T09:16:23.797Z,99074.34
2023-03-13T09:18:52.590Z,99069.94
2023-03-13T09:21:25.123Z,99062.22
2023-03-13T09:23:53.042Z,99057.09
2023-03-13T09:26:23.333Z,99054.41
2023-03-13T09:28:52.680Z,99051.84
2023-03-13T09:31:27.361Z,99057.78
2023-03-13T09:33:54.973Z,99059.50
2023-03-13T09:36:24.153Z,99047.38
2023-03-13T09:38:53.309Z,99056.69
2023-03-13T09:41:35.256Z,99043.72
2023-03-13T09:44:19.721Z,99030.69
2023-03-13T09:47:00.215Z,99025.41
2023-03-13T09:49:48.572Z,99013.25
2023-03-13T09:52:19.608Z,99006.34
2023-03-13T09:55:07.022Z,99004.47
2023-03-13T09:57:58.690Z,99000.94
2023-03-13T10:00:34.691Z,98987.09
2023-03-13T10:03:28.337Z,98978.41
2023-03-13T10:06:19.798Z,98974.78
2023-03-13T10:08:47.109Z,98964.53
2023-03-13T10:11:28.312Z,98975.56
2023-03-13T10:14:27.377Z,98965.25
2023-03-13T10:17:02.229Z,98966.06
2023-03-13T10:19:38.236Z,98967.75
2023-03-13T10:22:14.661Z,98959.09
2023-03-13T10:24:55.097Z,98954.66
2023-03-13T10:27:21.984Z,98959.81
2023-03-13T10:29:49.158Z,98946.09
2023-03-13T10:32:18.884Z,98951.09
2023-03-13T10:34:45.947Z,98954.50
2023-03-13T10:37:17.061Z,98941.63
2023-03-13T10:39:44.057Z,98950.19
2023-03-13T10:42:35.381Z,98950.25
2023-03-13T10:45:06.703Z,98949.47
2023-03-13T10:47:35.487Z,98940.09
2023-03-13T10:50:04.450Z,98942.81
2023-03-13T10:52:43.345Z,98946.22
2023-03-13T10:55:13.826Z,98936.00
2023-03-13T10:57:52.077Z,98939.47
2023-03-13T11:00:39.423Z,98931.88
2023-03-13T11:03:18.694Z,98925.09
2023-03-13T11:06:02.685Z,98908.06
2023-03-13T11:08:36.075Z,98920.06
2023-03-13T11:11:05.845Z,98911.53
2023-03-13T11:13:43.902Z,98903.03
2023-03-13T11:16:20.558Z,98904.78
2023-03-13T11:19:02.395Z,98904.84
2023-03-13T11:21:40.026Z,98886.09
2023-03-13T11:24:15.605Z,98885.28
2023-03-13T11:27:04.082Z,98870.69
2023-03-13T11:29:49.386Z,98867.28
2023-03-13T11:32:42.553Z,98860.41
2023-03-13T11:35:40.220Z,98855.19
2023-03-13T11:38:33.175Z,98841.38
2023-03-13T11:41:29.888Z,98848.22
2023-03-13T11:43:56.901Z,98850.84
2023-03-13T11:46:42.826Z,98838.00
2023-03-13T11:49:26.374Z,98829.41
2023-03-13T11:52:12.177Z,98834.56
2023-03-13T11:55:13.573Z,98828.59
2023-03-13T11:58:03.634Z,98821.63
2023-03-13T12:00:51.156Z,98830.19
2023-03-13T12:03:44.866Z,98825.88
2023-03-13T12:06:47.399Z,98822.47
2023-03-13T12:09:31.105Z,98819.03
2023-03-13T12:12:06.351Z,98815.56
2023-03-13T12:14:35.504Z,98819.03
2023-03-13T12:17:27.485Z,98808.75
2023-03-13T12:20:08.210Z,98812.19
2023-03-13T12:22:54.309Z,98810.50
2023-03-13T12:25:32.129Z,98789.97
2023-03-13T12:28:26.122Z,98793.41
2023-03-13T12:31:01.411Z,98787.34
2023-03-13T12:33:38.266Z,98777.91
2023-03-13T12:36:18.565Z,98764.22
2023-03-13T12:38:48.587Z,98781.34
2023-03-13T12:41:24.978Z,98760.75
2023-03-13T12:44:07.710Z,98772.78
2023-03-13T12:46:41.223Z,98767.66
2023-03-13T12:49:32.678Z,98767.63
2023-03-13T12:52:15.017Z,98760.69
2023-03-13T12:54:51.444Z,98756.41
2023-03-13T12:57:42.401Z,98738.34
2023-03-13T13:00:20.986Z,98729.72
2023-03-13T13:03:01.090Z,98735.69
2023-03-13T13:05:28.391Z,98738.25
2023-03-13T13:07:56.869Z,98722.00
2023-03-13T13:10:26.624Z,98723.53
2023-03-13T13:13:15.697Z,98722.66
2023-03-13T13:16:00.792Z,98717.47
2023-03-13T13:18:32.709Z,98722.63
2023-03-13T13:21:02.543Z,98714.81
2023-03-13T13:23:42.324Z,98707.88
2023-03-13T13:26:30.240Z,98708.69
2023-03-13T13:29:01.838Z,98718.91
2023-03-13T13:31:47.780Z,98710.31
2023-03-13T13:34:54.791Z,98708.53
2023-03-13T13:37:27.785Z,98708.59
2023-03-13T13:40:17.522Z,98705.09
2023-03-13T13:42:47.747Z,98710.25
2023-03-13T13:45:14.793Z,98713.69
2023-03-13T13:47:44.731Z,98705.09
2023-03-13T13:50:26.701Z,98699.94
2023-03-13T13:53:13.896Z,98685.28
2023-03-13T13:55:43.192Z,98693.03
2023-03-13T13:58:31.276Z,98690.50
2023-03-13T14:01:07.256Z,98702.44
2023-03-13T14:03:36.937Z,98690.38
2023-03-13T14:06:13.295Z,98686.06
2023-03-13T14:08:42.544Z,98684.22
2023-03-13T14:11:30.709Z,98687.72
2023-03-13T14:14:30.279Z,98695.34
2023-03-13T14:16:58.063Z,98680.78
2023-03-13T14:19:28.498Z,98679.88
2023-03-13T14:22:07.148Z,98680.53
2023-03-13T14:24:35.942Z,98678.81
2023-03-13T14:27:15.591Z,98680.41
2023-03-13T14:29:43.229Z,98677.81
2023-03-13T14:32:10.632Z,98685.47
2023-03-13T14:34:37.945Z,98685.47
2023-03-13T14:37:35.872Z,98676.88
2023-03-13T14:40:11.943Z,98676.97
2023-03-13T14:42:43.988Z,98676.03
2023-03-13T14:45:19.285Z,98668.34
2023-03-13T14:47:46.553Z,98669.06
2023-03-13T14:50:15.612Z,98656.25
2023-03-13T14:52:49.885Z,98659.56
2023-03-13T14:55:22.673Z,98662.91
2023-03-13T14:58:05.390Z,98655.13
2023-03-13T15:00:36.812Z,98660.97
2023-03-13T15:03:22.059Z,98652.38
2023-03-13T15:06:07.591Z,98653.94
2023-03-13T15:08:46.890Z,98652.19
2023-03-13T15:11:32.388Z,98660.66
2023-03-13T15:13:59.624Z,98653.72
2023-03-13T15:16:28.140Z,98646.88
2023-03-13T15:18:56.429Z,98631.41
2023-03-13T15:21:35.439Z,98648.31
2023-03-13T15:24:12.769Z,98654.31
2023-03-13T15:26:39.925Z,98636.31
2023-03-13T15:29:07.380Z,98647.34
2023-03-13T15:31:34.665Z,98648.22
2023-03-13T15:34:01.884Z,98646.34
2023-03-13T15:36:30.437Z,98643.75
2023-03-13T15:38:57.777Z,98652.25
2023-03-13T15:41:25.260Z,98651.31
2023-03-13T15:43:52.955Z,98646.97
2023-03-13T15:46:20.898Z,98641.78
2023-03-13T15:48:48.550Z,98654.63
2023-03-13T15:51:17.427Z,98656.22
2023-03-13T15:53:46.526Z,98644.16
2023-03-13T15:56:19.026Z,98644.03
2023-03-13T15:58:47.876Z,98626.03
2023-03-13T16:01:17.830Z,98637.97
2023-03-13T16:03:46.372Z,98636.09
2023-03-13T16:06:20.757Z,98635.13
2023-03-13T16:08:48.231Z,98643.75
2023-03-13T16:11:17.058Z,98650.53
2023-03-13T16:13:44.994Z,98652.09
2023-03-13T16:16:24.813Z,98631.38
2023-03-13T16:18:52.889Z,98627.91
2023-03-13T16:21:33.384Z,98626.31
2023-03-13T16:24:00.706Z,98633.09
2023-03-13T16:26:30.917Z,98628.66
2023-03-13T16:28:58.598Z,98626.00
2023-03-13T16:31:28.738Z,98624.31
2023-03-13T16:33:57.032Z,98629.50
2023-03-13T16:36:31.385Z,98616.66
2023-03-13T16:39:00.033Z,98619.28
2023-03-13T16:41:28.601Z,98605.75
2023-03-13T16:43:56.610Z,98622.00
2023-03-13T16:46:32.853Z,98616.19
2023-03-13T16:49:00.031Z,98624.78
2023-03-13T16:51:28.391Z,98638.41
2023-03-13T16:53:57.275Z,98627.34
2023-03-13T16:56:36.607Z,98633.34
2023-03-13T16:59:07.724Z,98633.34
2023-03-13T17:01:36.122Z,98629.97
2023-03-13T17:04:03.586Z,98630.84
2023-03-13T17:06:38.748Z,98629.97
2023-03-13T17:09:12.222Z,98629.88
2023-03-13T17:11:39.462Z,98633.34
2023-03-13T17:14:07.235Z,98595.44
2023-03-13T17:16:42.609Z,98635.22
2023-03-13T17:19:17.206Z,98644.56
2023-03-13T17:21:44.352Z,98633.44
2023-03-13T17:24:11.572Z,98638.59
2023-03-13T17:26:40.085Z,98642.91
2023-03-13T17:29:08.584Z,98643.84
2023-03-13T17:31:38.865Z,98640.38
2023-03-13T17:34:06.845Z,98640.38
2023-03-13T17:36:35.155Z,98643.84
2023-03-13T17:39:04.932Z,98650.69
2023-03-13T17:41:33.697Z,98640.38
2023-03-13T17:44:00.768Z,98635.13
2023-03-13T17:46:38.781Z,98626.50
2023-03-13T17:49:06.126Z,98636.72
2023-03-13T17:51:35.054Z,98633.25
2023-03-13T17:54:02.734Z,98628.19
2023-03-13T17:56:38.900Z,98635.72
2023-03-13T17:59:14.713Z,98633.16
2023-03-13T18:01:42.716Z,98640.88
2023-03-13T18:04:10.939Z,98624.53
2023-03-13T18:06:50.677Z,98613.31
2023-03-13T18:09:20.948Z,98621.84
2023-03-13T18:11:49.209Z,98624.53
2023-03-13T18:14:16.294Z,98616.00
2023-03-13T18:16:50.552Z,98604.00
2023-03-13T18:19:21.215Z,98601.19
2023-03-13T18:21:51.992Z,98605.47
2023-03-13T18:24:19.711Z,98596.03
2023-03-13T18:26:48.558Z,98588.41
2023-03-13T18:29:21.598Z,98571.53
2023-03-13T18:31:50.774Z,98578.97
2023-03-13T18:34:17.899Z,98564.28
2023-03-13T18:36:44.989Z,98566.06
2023-03-13T18:39:17.412Z,98568.72
2023-03-13T18:41:45.442Z,98567.06
2023-03-13T18:44:15.810Z,98569.66
2023-03-13T18:46:43.588Z,98562.88
2023-03-13T18:49:17.378Z,98571.53
2023-03-13T18:51:44.848Z,98566.34
2023-03-13T18:54:11.902Z,98570.63
2023-03-13T18:56:39.330Z,98583.50
2023-03-13T18:59:11.065Z,98571.41
2023-03-13T19:01:38.075Z,98569.66
2023-03-13T19:04:05.172Z,98563.66
2023-03-13T19:06:34.872Z,98567.97
2023-03-13T19:09:42.299Z,98574.91
2023-03-13T19:12:08.182Z,98581.75
2023-03-13T19:14:35.226Z,98571.41
2023-03-13T19:17:02.337Z,98547.47
2023-03-13T19:19:32.069Z,98538.88
2023-03-13T19:21:59.184Z,98539.75
2023-03-13T19:24:26.970Z,98548.31
2023-03-13T19:26:58.968Z,98546.53
2023-03-13T19:29:28.690Z,98539.66
2023-03-13T19:31:56.062Z,98538.78
2023-03-13T19:34:23.318Z,98553.34
2023-03-13T19:36:53.290Z,98550.56
2023-03-13T19:39:25.619Z,98538.56
2023-03-13T19:41:53.736Z,98543.75
2023-03-13T19:44:21.896Z,98532.72
2023-03-13T19:46:49.300Z,98536.91
2023-03-13T19:49:18.739Z,98544.75
2023-03-13T19:51:46.594Z,98545.41
2023-03-13T19:54:14.016Z,98533.41
2023-03-13T19:56:43.974Z,98540.19
2023-03-13T19:59:19.309Z,98537.63
2023-03-13T20:01:46.971Z,98535.03
2023-03-13T20:04:14.238Z,98529.84
2023-03-13T20:06:43.217Z,98527.31
2023-03-13T20:09:12.762Z,98536.81
2023-03-13T20:11:39.879Z,98527.28
2023-03-13T20:14:07.240Z,98529.84
2023-03-13T20:16:35.368Z,98515.16
2023-03-13T20:19:02.955Z,98519.44
2023-03-13T20:21:32.109Z,98493.78
2023-03-13T20:23:59.987Z,98495.50
2023-03-13T20:26:29.137Z,98493.63
2023-03-13T20:28:56.908Z,98486.66
2023-03-13T20:31:30.061Z,98496.09
2023-03-13T20:33:58.960Z,98503.00
2023-03-13T20:36:26.931Z,98502.13
2023-03-13T20:38:54.155Z,98498.72
2023-03-13T20:41:25.207Z,98481.50
2023-03-13T20:43:52.933Z,98473.88
2023-03-13T20:46:20.504Z,98460.97
2023-03-13T20:48:47.757Z,98465.81
2023-03-13T20:51:14.869Z,98463.94
2023-03-13T20:53:42.876Z,98470.78
2023-03-13T20:56:11.706Z,98480.88
2023-03-13T20:58:39.524Z,98485.28
2023-03-13T21:01:07.587Z,98477.31
2023-03-13T21:03:36.110Z,98477.31
2023-03-13T21:06:15.217Z,98487.75
2023-03-13T21:08:43.316Z,98470.44
2023-03-13T21:11:23.583Z,98479.00
2023-03-13T21:13:51.656Z,98482.47
2023-03-13T21:16:20.148Z,98473.03
2023-03-13T21:18:48.015Z,98467.00
2023-03-13T21:21:18.992Z,98466.88
2023-03-13T21:23:47.046Z,98468.56
2023-03-13T21:26:15.266Z,98463.38
2023-03-13T21:28:42.378Z,98460.03
2023-03-13T21:31:15.280Z,98458.13
2023-03-13T21:33:43.515Z,98464.88
2023-03-13T21:36:11.911Z,98454.53
2023-03-13T21:38:38.965Z,98454.53
2023-03-13T21:41:15.187Z,98456.03
2023-03-13T21:43:43.558Z,98441.41
2023-03-13T21:46:16.494Z,98447.13
2023-03-13T21:51:13.637Z,98435.13
2023-03-13T21:53:42.312Z,98435.69
2023-03-13T21:56:15.216Z,98424.47
2023-03-13T21:58:43.031Z,98413.13
2023-03-13T22:01:10.126Z,98403.69
2023-03-13T22:03:37.325Z,98396.84
2023-03-13T22:06:11.326Z,98401.66
2023-03-13T22:08:38.425Z,98401.66
2023-03-13T22:11:05.783Z,98398.19
2023-03-13T22:13:32.977Z,98385.28
2023-03-13T22:16:00.014Z,98379.19
2023-03-13T22:18:27.091Z,98377.41
2023-03-13T22:20:57.503Z,98349.78
2023-03-13T22:23:24.424Z,98347.22
2023-03-13T22:25:55.953Z,98340.19
2023-03-13T22:28:23.817Z,98337.59
2023-03-13T22:30:50.966Z,98327.41
2023-03-13T22:33:18.994Z,98333.31
2023-03-13T22:35:52.586Z,98332.34
2023-03-13T22:38:20.873Z,98327.94
2023-03-13T22:40:49.176Z,98316.72
2023-03-13T22:43:16.218Z,98320.00
2023-03-13T22:45:43.298Z,98319.75
2023-03-13T22:48:10.373Z,98337.75
2023-03-13T22:50:37.424Z,98338.69
2023-03-13T22:53:04.578Z,98313.13
2023-03-13T22:55:34.543Z,98331.63
2023-03-13T22:58:02.198Z,98325.63
2023-03-13T23:00:29.202Z,98326.34
2023-03-13T23:02:56.296Z,98329.59
2023-03-13T23:05:23.395Z,98329.53
2023-03-13T23:07:51.039Z,98332.13
2023-03-13T23:10:19.351Z,98324.19
2023-03-13T23:12:46.420Z,98295.75
2023-03-13T23:15:13.456Z,98308.69
2023-03-13T23:17:40.506Z,98320.81
2023-03-13T23:20:13.120Z,98325.19
2023-03-13T23:22:41.864Z,98336.34
2023-03-13T23:25:10.201Z,98334.63
2023-03-13T23:27:37.221Z,98330.31
2023-03-13T23:30:06.342Z,98308.78
2023-03-13T23:32:38.150Z,98312.16
2023-03-13T23:35:06.698Z,98315.53
2023-03-13T23:37:34.265Z,98306.97
2023-03-13T23:40:02.966Z,98325.19
2023-03-13T23:42:30.908Z,98321.84
2023-03-13T23:44:58.075Z,98309.13
2023-03-13T23:47:25.162Z,98309.03
2023-03-13T23:49:52.590Z,98307.38
2023-03-13T23:52:19.647Z,98300.50
2023-03-13T23:54:46.702Z,98314.19
2023-03-13T23:57:13.865Z,98296.91
2023-03-13T23:59:40.926Z,98314.94
